createdAt,value
2017-11-28T01:38:27.844Z,52.06
2017-11-28T01:38:28.399Z,51.87
2017-11-28T01:38:28.998Z,52.06
2017-11-28T01:38:29.598Z,51.97
2017-11-28T01:38:30.196Z,51.78
2017-11-28T01:38:30.798Z,51.87
2017-11-28T01:38:31.398Z,51.87
2017-11-28T01:38:31.997Z,51.97
2017-11-28T01:39:26.500Z,51.68
2017-11-28T01:39:27.076Z,52.16
2017-11-28T01:39:27.678Z,51.78
2017-11-28T01:39:28.275Z,51.78
2017-11-28T01:39:28.875Z,51.78
2017-11-28T01:39:29.477Z,51.97
2017-11-28T01:39:30.076Z,51.78
2017-11-28T01:39:30.674Z,51.78
2017-11-28T01:40:24.153Z,52.54
2017-11-28T01:40:24.727Z,52.64
2017-11-28T01:40:25.327Z,52.45
2017-11-28T01:40:25.932Z,52.64
2017-11-28T01:40:26.526Z,52.54
2017-11-28T01:40:27.126Z,52.54
2017-11-28T01:40:27.726Z,52.54
2017-11-28T01:40:28.325Z,52.54
2017-11-28T01:41:21.806Z,52.64
2017-11-28T01:41:22.378Z,52.83
2017-11-28T01:41:22.987Z,52.64
2017-11-28T01:41:23.580Z,52.64
2017-11-28T01:41:24.179Z,52.73
2017-11-28T01:41:24.780Z,52.73
2017-11-28T01:41:25.379Z,52.64
2017-11-28T01:41:25.978Z,52.83
2017-11-28T01:42:22.017Z,52.73
2017-11-28T01:42:22.590Z,52.64
2017-11-28T01:42:23.189Z,52.64
2017-11-28T01:42:23.789Z,52.92
2017-11-28T01:42:24.399Z,52.83
2017-11-28T01:42:24.989Z,52.73
2017-11-28T01:43:20.488Z,52.64
2017-11-28T01:43:21.069Z,52.54
2017-11-28T01:43:21.661Z,52.92
2017-11-28T01:43:22.282Z,52.83
2017-11-28T01:43:22.861Z,52.64
2017-11-28T01:43:23.462Z,52.92
2017-11-28T01:44:30.531Z,53.39
2017-11-28T01:44:31.107Z,53.49
2017-11-28T01:44:31.705Z,53.49
2017-11-28T01:45:36.784Z,53.30
2017-11-28T01:45:37.360Z,53.30
2017-11-28T01:45:37.958Z,53.30
2017-11-28T01:45:38.557Z,53.39
2017-11-28T01:45:39.157Z,53.30
2017-11-28T01:45:39.761Z,53.49
2017-11-28T01:46:33.821Z,53.30
2017-11-28T01:46:34.396Z,53.30
2017-11-28T01:46:34.995Z,53.20
2017-11-28T01:46:35.595Z,53.49
2017-11-28T01:46:36.195Z,53.30
2017-11-28T01:46:36.796Z,53.49
2017-11-28T01:46:37.395Z,53.39
2017-11-28T01:46:37.996Z,53.30
2017-11-28T01:47:31.477Z,53.58
2017-11-28T01:47:32.047Z,53.58
2017-11-28T01:47:32.647Z,53.87
2017-11-28T01:47:33.248Z,53.58
2017-11-28T01:47:33.849Z,53.39
2017-11-28T01:47:34.447Z,53.39
2017-11-28T01:47:35.046Z,53.87
2017-11-28T01:47:35.647Z,53.58
2017-11-28T01:48:29.136Z,54.15
2017-11-28T01:48:29.698Z,54.15
2017-11-28T01:48:30.306Z,54.15
2017-11-28T01:48:30.898Z,54.25
2017-11-28T01:48:31.499Z,54.25
2017-11-28T01:48:32.097Z,54.06
2017-11-28T01:48:32.698Z,54.06
2017-11-28T01:48:33.301Z,54.06
2017-11-28T01:49:26.778Z,53.87
2017-11-28T01:49:27.353Z,54.06
2017-11-28T01:49:27.952Z,54.25
2017-11-28T01:49:28.563Z,54.06
2017-11-28T01:49:29.156Z,54.15
2017-11-28T01:49:29.755Z,54.25
2017-11-28T01:49:30.366Z,54.25
2017-11-28T01:49:30.950Z,54.25
2017-11-28T01:50:24.430Z,54.44
2017-11-28T01:50:25.006Z,54.44
2017-11-28T01:50:25.604Z,54.63
2017-11-28T01:50:26.204Z,54.44
2017-11-28T01:50:26.802Z,54.44
2017-11-28T01:50:27.405Z,54.63
2017-11-28T01:50:28.007Z,54.53
2017-11-28T01:50:28.603Z,54.44
2017-11-28T01:51:22.081Z,54.63
2017-11-28T01:51:22.660Z,54.63
2017-11-28T01:51:23.255Z,54.63
2017-11-28T01:51:23.855Z,54.72
2017-11-28T01:51:24.456Z,54.82
2017-11-28T01:51:25.056Z,54.63
2017-11-28T01:51:25.654Z,54.82
2017-11-28T01:51:26.254Z,54.72
2017-11-28T01:52:19.747Z,55.00
2017-11-28T01:52:20.307Z,54.91
2017-11-28T01:52:20.907Z,54.72
2017-11-28T01:52:21.508Z,54.72
2017-11-28T01:52:22.109Z,55.10
2017-11-28T01:52:22.721Z,55.00
2017-11-28T01:52:23.306Z,55.19
2017-11-28T01:52:23.907Z,55.29
2017-11-28T01:53:18.408Z,55.29
2017-11-28T01:53:18.982Z,55.19
2017-11-28T01:53:19.589Z,55.29
2017-11-28T01:53:20.181Z,55.19
2017-11-28T01:53:20.780Z,55.48
2017-11-28T01:53:21.382Z,55.29
2017-11-28T01:53:21.982Z,55.48
2017-11-28T01:53:22.585Z,55.38
2017-11-28T01:54:17.093Z,56.15
2017-11-28T01:54:17.656Z,56.15
2017-11-28T01:54:18.260Z,56.15
2017-11-28T01:54:18.857Z,56.05
2017-11-28T01:54:19.459Z,56.05
2017-11-28T01:54:20.058Z,55.96
2017-11-28T01:54:20.657Z,55.57
2017-11-28T01:54:21.256Z,55.86
2017-11-28T01:55:15.760Z,56.24
2017-11-28T01:55:16.335Z,56.34
2017-11-28T01:55:16.936Z,56.24
2017-11-28T01:55:17.535Z,56.34
2017-11-28T01:55:18.133Z,56.43
2017-11-28T01:55:18.736Z,56.43
2017-11-28T01:55:19.334Z,56.34
2017-11-28T01:55:19.934Z,56.34
2017-11-28T01:56:13.922Z,56.52
2017-11-28T01:56:14.496Z,56.62
2017-11-28T01:56:15.097Z,56.43
2017-11-28T01:56:15.699Z,56.62
2017-11-28T01:56:16.302Z,56.52
2017-11-28T01:56:16.897Z,56.62
2017-11-28T01:56:17.496Z,56.62
2017-11-28T01:57:11.984Z,57.66
2017-11-28T01:57:12.557Z,57.57
2017-11-28T01:57:13.157Z,57.57
2017-11-28T01:57:13.762Z,57.66
2017-11-28T01:57:14.357Z,57.76
2017-11-28T01:57:14.958Z,57.57
2017-11-28T01:57:15.557Z,57.66
2017-11-28T01:57:16.158Z,57.66
2017-11-28T01:58:09.642Z,58.04
2017-11-28T01:58:10.213Z,58.04
2017-11-28T01:58:10.811Z,57.95
2017-11-28T01:58:11.411Z,57.95
2017-11-28T01:58:12.015Z,58.14
2017-11-28T01:58:12.611Z,57.47
2017-11-28T01:58:13.212Z,58.14
2017-11-28T01:58:13.810Z,57.85
2017-11-28T01:59:08.314Z,58.04
2017-11-28T01:59:08.885Z,58.04
2017-11-28T01:59:09.494Z,57.95
2017-11-28T01:59:10.084Z,58.04
2017-11-28T01:59:10.685Z,57.95
2017-11-28T01:59:11.284Z,58.04
2017-11-28T01:59:11.884Z,57.95
2017-11-28T01:59:12.483Z,57.95
2017-11-28T02:00:06.994Z,58.80
2017-11-28T02:00:07.569Z,58.80
2017-11-28T02:00:08.164Z,58.80
2017-11-28T02:00:08.764Z,58.80
2017-11-28T02:00:09.361Z,58.89
2017-11-28T02:00:09.978Z,58.61
2017-11-28T02:00:10.568Z,58.89
2017-11-28T02:00:11.163Z,58.80
2017-11-28T02:01:05.664Z,58.51
2017-11-28T02:01:06.238Z,58.70
2017-11-28T02:01:06.838Z,59.08
2017-11-28T02:01:07.438Z,58.70
2017-11-28T02:01:08.041Z,58.70
2017-11-28T02:01:08.638Z,58.80
2017-11-28T02:01:09.239Z,58.70
2017-11-28T02:01:09.839Z,58.51
2017-11-28T02:02:03.423Z,58.33
2017-11-28T02:02:03.998Z,58.14
2017-11-28T02:02:04.592Z,58.33
2017-11-28T02:02:05.191Z,58.23
2017-11-28T02:02:05.791Z,58.23
2017-11-28T02:02:06.390Z,58.14
2017-11-28T02:02:06.990Z,58.14
2017-11-28T02:02:07.592Z,58.23
2017-11-28T02:03:01.070Z,58.80
2017-11-28T02:03:01.644Z,58.80
2017-11-28T02:03:02.244Z,58.70
2017-11-28T02:03:02.843Z,58.51
2017-11-28T02:03:03.446Z,58.61
2017-11-28T02:03:04.044Z,58.80
2017-11-28T02:03:04.644Z,58.80
2017-11-28T02:03:05.242Z,58.70
2017-11-28T02:03:58.722Z,59.08
2017-11-28T02:03:59.296Z,58.89
2017-11-28T02:03:59.895Z,58.61
2017-11-28T02:04:00.496Z,58.61
2017-11-28T02:04:01.096Z,58.61
2017-11-28T02:04:01.695Z,58.61
2017-11-28T02:04:02.316Z,58.80
2017-11-28T02:04:02.894Z,58.80
2017-11-28T02:04:57.396Z,59.08
2017-11-28T02:04:57.971Z,59.46
2017-11-28T02:04:58.570Z,59.37
2017-11-28T02:04:59.170Z,59.27
2017-11-28T02:04:59.769Z,59.18
2017-11-28T02:05:00.370Z,59.27
2017-11-28T02:05:00.972Z,59.18
2017-11-28T02:05:01.570Z,59.27
2017-11-28T02:05:56.072Z,59.75
2017-11-28T02:05:56.654Z,60.06
2017-11-28T02:05:57.247Z,59.84
2017-11-28T02:05:57.848Z,59.94
2017-11-28T02:05:58.449Z,60.06
2017-11-28T02:05:59.065Z,59.94
2017-11-28T02:05:59.665Z,59.94
2017-11-28T02:06:00.270Z,59.94
2017-11-28T02:06:53.727Z,60.13
2017-11-28T02:06:54.299Z,60.06
2017-11-28T02:06:54.899Z,60.35
2017-11-28T02:06:55.499Z,60.16
2017-11-28T02:06:56.110Z,60.16
2017-11-28T02:06:56.699Z,60.25
2017-11-28T02:06:57.297Z,60.06
2017-11-28T02:06:57.897Z,60.13
2017-11-28T02:07:51.376Z,60.35
2017-11-28T02:07:51.953Z,60.53
2017-11-28T02:07:52.550Z,60.44
2017-11-28T02:07:53.151Z,60.35
2017-11-28T02:07:53.756Z,60.35
2017-11-28T02:07:54.350Z,60.35
2017-11-28T02:07:54.952Z,60.35
2017-11-28T02:07:55.550Z,60.35
2017-11-28T02:08:50.051Z,61.11
2017-11-28T02:08:50.625Z,61.17
2017-11-28T02:08:51.224Z,61.20
2017-11-28T02:08:51.823Z,61.11
2017-11-28T02:08:52.427Z,61.30
2017-11-28T02:08:53.024Z,61.17
2017-11-28T02:08:53.624Z,61.30
2017-11-28T02:08:54.224Z,60.63
2017-11-28T02:09:48.727Z,60.98
2017-11-28T02:09:49.301Z,60.73
2017-11-28T02:09:49.901Z,60.92
2017-11-28T02:09:50.500Z,60.82
2017-11-28T02:09:51.099Z,60.82
2017-11-28T02:09:51.699Z,60.82
2017-11-28T02:09:52.301Z,60.73
2017-11-28T02:09:52.900Z,60.73
2017-11-28T02:10:47.401Z,61.01
2017-11-28T02:10:47.986Z,61.08
2017-11-28T02:10:48.576Z,61.17
2017-11-28T02:10:49.175Z,61.08
2017-11-28T02:10:49.776Z,61.17
2017-11-28T02:10:50.377Z,61.20
2017-11-28T02:10:50.975Z,60.98
2017-11-28T02:10:51.576Z,61.08
2017-11-28T02:11:45.055Z,61.08
2017-11-28T02:11:45.630Z,61.11
2017-11-28T02:11:46.231Z,61.11
2017-11-28T02:11:46.829Z,61.08
2017-11-28T02:11:47.433Z,61.17
2017-11-28T02:11:48.026Z,60.98
2017-11-28T02:11:48.627Z,61.17
2017-11-28T02:11:49.236Z,61.08
2017-11-28T02:12:43.737Z,62.12
2017-11-28T02:12:44.304Z,62.02
2017-11-28T02:12:44.905Z,62.05
2017-11-28T02:12:45.508Z,62.05
2017-11-28T02:12:46.106Z,62.05
2017-11-28T02:12:46.706Z,62.15
2017-11-28T02:12:47.304Z,62.15
2017-11-28T02:12:47.913Z,62.05
2017-11-28T02:13:41.385Z,62.12
2017-11-28T02:13:41.956Z,61.83
2017-11-28T02:13:42.557Z,61.87
2017-11-28T02:13:43.156Z,61.96
2017-11-28T02:13:43.763Z,61.74
2017-11-28T02:13:44.355Z,61.77
2017-11-28T02:13:44.956Z,61.77
2017-11-28T02:13:45.554Z,61.96
2017-11-28T02:14:40.061Z,62.43
2017-11-28T02:14:40.630Z,62.43
2017-11-28T02:14:41.230Z,62.12
2017-11-28T02:14:41.830Z,62.24
2017-11-28T02:14:42.430Z,62.24
2017-11-28T02:14:43.029Z,61.96
2017-11-28T02:14:43.630Z,62.12
2017-11-28T02:14:44.230Z,61.93
2017-11-28T02:15:38.733Z,62.15
2017-11-28T02:15:39.308Z,62.05
2017-11-28T02:15:39.906Z,62.43
2017-11-28T02:15:40.506Z,62.43
2017-11-28T02:15:41.109Z,62.12
2017-11-28T02:15:41.711Z,62.05
2017-11-28T02:15:42.305Z,62.05
2017-11-28T02:15:42.906Z,62.15
2017-11-28T02:16:37.410Z,62.40
2017-11-28T02:16:37.984Z,62.43
2017-11-28T02:16:38.586Z,62.82
2017-11-28T02:16:39.184Z,63.10
2017-11-28T02:16:39.825Z,62.43
2017-11-28T02:16:40.397Z,62.72
2017-11-28T02:16:40.983Z,63.10
2017-11-28T02:16:41.582Z,62.82
2017-11-28T02:17:36.088Z,63.01
2017-11-28T02:17:36.659Z,63.01
2017-11-28T02:17:37.258Z,62.97
2017-11-28T02:17:37.858Z,62.91
2017-11-28T02:17:38.464Z,62.53
2017-11-28T02:17:39.056Z,62.50
2017-11-28T02:17:39.658Z,63.01
2017-11-28T02:17:40.258Z,62.53
2017-11-28T02:18:33.844Z,63.07
2017-11-28T02:18:34.412Z,63.01
2017-11-28T02:18:35.020Z,63.01
2017-11-28T02:18:35.613Z,63.01
2017-11-28T02:18:36.214Z,62.82
2017-11-28T02:18:36.814Z,62.69
2017-11-28T02:18:37.410Z,63.01
2017-11-28T02:18:38.010Z,62.88
2017-11-28T02:19:31.496Z,62.72
2017-11-28T02:19:32.067Z,63.10
2017-11-28T02:19:32.692Z,63.26
2017-11-28T02:19:33.262Z,63.29
2017-11-28T02:19:33.866Z,63.10
2017-11-28T02:19:34.461Z,63.20
2017-11-28T02:19:35.062Z,63.20
2017-11-28T02:19:35.661Z,63.10
2017-11-28T02:20:29.142Z,63.57
2017-11-28T02:20:29.718Z,63.45
2017-11-28T02:20:30.319Z,63.48
2017-11-28T02:20:30.922Z,63.48
2017-11-28T02:20:31.517Z,63.29
2017-11-28T02:20:32.120Z,63.29
2017-11-28T02:20:32.727Z,63.26
2017-11-28T02:20:33.317Z,63.39
2017-11-28T02:21:27.818Z,63.29
2017-11-28T02:21:28.394Z,63.67
2017-11-28T02:21:28.990Z,63.29
2017-11-28T02:21:29.591Z,63.29
2017-11-28T02:21:30.193Z,63.20
2017-11-28T02:21:30.790Z,63.29
2017-11-28T02:21:31.392Z,63.29
2017-11-28T02:21:32.028Z,63.45
2017-11-28T02:22:25.470Z,63.67
2017-11-28T02:22:26.042Z,63.86
2017-11-28T02:22:26.643Z,63.35
2017-11-28T02:22:27.243Z,63.73
2017-11-28T02:22:27.846Z,63.29
2017-11-28T02:22:28.441Z,63.82
2017-11-28T02:22:29.040Z,63.86
2017-11-28T02:22:29.641Z,63.92
2017-11-28T02:23:23.129Z,63.48
2017-11-28T02:23:23.697Z,63.95
2017-11-28T02:23:24.297Z,64.05
2017-11-28T02:23:24.895Z,64.05
2017-11-28T02:23:25.505Z,64.05
2017-11-28T02:23:26.094Z,64.05
2017-11-28T02:23:26.694Z,63.76
2017-11-28T02:23:27.293Z,63.95
2017-11-28T02:24:21.283Z,63.48
2017-11-28T02:24:21.863Z,63.67
2017-11-28T02:24:22.457Z,63.67
2017-11-28T02:24:23.057Z,63.57
2017-11-28T02:24:23.660Z,63.67
2017-11-28T02:24:24.260Z,63.67
2017-11-28T02:24:24.855Z,63.48
2017-11-28T02:25:19.344Z,64.52
2017-11-28T02:25:19.919Z,63.86
2017-11-28T02:25:20.520Z,64.43
2017-11-28T02:25:21.119Z,64.52
2017-11-28T02:25:21.719Z,64.24
2017-11-28T02:25:22.320Z,64.43
2017-11-28T02:25:22.917Z,63.86
2017-11-28T02:25:23.527Z,63.95
2017-11-28T02:26:18.327Z,64.81
2017-11-28T02:26:18.903Z,64.90
2017-11-28T02:26:19.504Z,64.81
2017-11-28T02:26:21.062Z,64.62
2017-11-28T02:26:21.561Z,64.71
2017-11-28T02:26:22.161Z,64.43
2017-11-28T02:27:15.671Z,64.52
2017-11-28T02:27:16.250Z,64.52
2017-11-28T02:27:16.847Z,64.52
2017-11-28T02:27:17.446Z,64.33
2017-11-28T02:27:18.047Z,64.71
2017-11-28T02:27:18.647Z,64.71
2017-11-28T02:27:19.246Z,64.62
2017-11-28T02:27:19.850Z,64.43
2017-11-28T02:28:13.324Z,64.49
2017-11-28T02:28:13.900Z,64.52
2017-11-28T02:28:14.500Z,64.71
2017-11-28T02:28:15.101Z,64.52
2017-11-28T02:28:15.700Z,64.43
2017-11-28T02:28:16.298Z,64.62
2017-11-28T02:28:16.899Z,64.52
2017-11-28T02:28:17.510Z,64.62
2017-11-28T02:29:12.000Z,64.14
2017-11-28T02:29:12.576Z,64.52
2017-11-28T02:29:13.175Z,64.52
2017-11-28T02:29:13.773Z,64.43
2017-11-28T02:29:14.380Z,64.52
2017-11-28T02:29:14.976Z,64.62
2017-11-28T02:29:15.573Z,64.62
2017-11-28T02:29:16.172Z,64.62
2017-11-28T02:30:09.655Z,64.52
2017-11-28T02:30:10.227Z,64.52
2017-11-28T02:30:10.826Z,64.52
2017-11-28T02:30:11.427Z,64.33
2017-11-28T02:30:12.051Z,64.33
2017-11-28T02:30:12.627Z,64.52
2017-11-28T02:30:13.227Z,64.33
2017-11-28T02:30:13.827Z,64.33
2017-11-28T02:31:08.327Z,65.28
2017-11-28T02:31:08.901Z,65.00
2017-11-28T02:31:09.501Z,65.28
2017-11-28T02:31:10.114Z,65.09
2017-11-28T02:31:10.706Z,65.09
2017-11-28T02:31:11.318Z,64.90
2017-11-28T02:31:11.901Z,64.90
2017-11-28T02:31:12.499Z,65.09
2017-11-28T02:32:05.980Z,65.56
2017-11-28T02:32:06.556Z,65.75
2017-11-28T02:32:07.155Z,65.47
2017-11-28T02:32:07.755Z,65.85
2017-11-28T02:32:08.354Z,66.04
2017-11-28T02:32:08.976Z,65.75
2017-11-28T02:32:09.552Z,65.37
2017-11-28T02:32:10.154Z,65.66
2017-11-28T02:33:04.552Z,66.33
2017-11-28T02:33:05.127Z,66.52
2017-11-28T02:33:05.725Z,66.33
2017-11-28T02:33:06.327Z,66.04
2017-11-28T02:33:06.931Z,65.75
2017-11-28T02:33:07.526Z,65.85
2017-11-28T02:33:08.126Z,65.85
2017-11-28T02:33:08.728Z,66.33
2017-11-28T02:34:02.204Z,66.04
2017-11-28T02:34:02.779Z,66.23
2017-11-28T02:34:03.378Z,66.33
2017-11-28T02:34:03.978Z,65.95
2017-11-28T02:34:04.582Z,66.33
2017-11-28T02:34:05.190Z,66.23
2017-11-28T02:34:05.778Z,66.23
2017-11-28T02:34:06.379Z,66.14
2017-11-28T02:52:27.312Z,62.40
2017-11-28T02:52:27.886Z,62.40
2017-11-28T02:52:28.484Z,62.40
2017-11-28T02:52:29.084Z,62.59
2017-11-28T02:52:29.688Z,62.50
2017-11-28T02:52:30.284Z,62.31
2017-11-28T02:52:30.882Z,62.31
2017-11-28T02:52:31.484Z,62.12
2017-11-28T02:53:25.064Z,62.50
2017-11-28T02:53:25.638Z,62.40
2017-11-28T02:53:26.251Z,62.40
2017-11-28T02:53:26.847Z,62.40
2017-11-28T02:53:27.455Z,62.40
2017-11-28T02:53:28.039Z,62.31
2017-11-28T02:53:28.635Z,62.40
2017-11-28T02:53:29.240Z,62.59
2017-11-28T02:54:22.725Z,61.93
2017-11-28T02:54:23.291Z,61.65
2017-11-28T02:54:23.892Z,61.93
2017-11-28T02:54:24.490Z,61.65
2017-11-28T02:54:25.088Z,61.74
2017-11-28T02:54:25.690Z,61.74
2017-11-28T02:54:26.288Z,61.83
2017-11-28T02:54:26.891Z,61.74
2017-11-28T02:55:21.389Z,62.02
2017-11-28T02:55:21.966Z,62.31
2017-11-28T02:55:22.563Z,61.83
2017-11-28T02:55:23.165Z,61.83
2017-11-28T02:55:23.764Z,61.93
2017-11-28T02:55:24.365Z,61.83
2017-11-28T02:55:24.963Z,61.83
2017-11-28T02:55:25.563Z,61.74
2017-11-28T02:56:19.044Z,61.17
2017-11-28T02:56:19.620Z,60.98
2017-11-28T02:56:20.219Z,61.08
2017-11-28T02:56:20.816Z,60.98
2017-11-28T02:56:21.421Z,60.79
2017-11-28T02:56:22.019Z,60.89
2017-11-28T02:56:22.619Z,60.70
2017-11-28T02:56:23.217Z,60.70
2017-11-28T02:57:16.695Z,61.27
2017-11-28T02:57:17.270Z,61.36
2017-11-28T02:57:17.877Z,61.36
2017-11-28T02:57:18.468Z,61.36
2017-11-28T02:57:19.076Z,61.36
2017-11-28T02:57:19.670Z,61.46
2017-11-28T02:57:20.268Z,61.36
2017-11-28T02:57:20.868Z,61.46
2017-11-28T02:58:15.369Z,60.89
2017-11-28T02:58:15.945Z,60.70
2017-11-28T02:58:16.543Z,60.98
2017-11-28T02:58:17.143Z,61.08
2017-11-28T02:58:17.742Z,60.70
2017-11-28T02:58:18.346Z,60.98
2017-11-28T02:58:18.943Z,60.98
2017-11-28T02:58:19.544Z,60.98
2017-11-28T02:59:13.134Z,60.98
2017-11-28T02:59:13.727Z,60.89
2017-11-28T02:59:14.299Z,60.98
2017-11-28T02:59:14.903Z,61.08
2017-11-28T02:59:15.498Z,60.98
2017-11-28T02:59:16.099Z,61.08
2017-11-28T02:59:16.698Z,60.98
2017-11-28T02:59:17.299Z,60.98
2017-11-28T03:00:10.780Z,61.36
2017-11-28T03:00:11.352Z,61.27
2017-11-28T03:00:11.952Z,61.27
2017-11-28T03:00:12.553Z,61.27
2017-11-28T03:00:13.157Z,61.27
2017-11-28T03:00:13.752Z,61.55
2017-11-28T03:00:14.350Z,61.27
2017-11-28T03:00:14.951Z,61.36
2017-11-28T03:01:08.430Z,61.83
2017-11-28T03:01:09.003Z,61.93
2017-11-28T03:01:09.602Z,61.83
2017-11-28T03:01:10.208Z,61.74
2017-11-28T03:01:10.805Z,61.65
2017-11-28T03:01:11.404Z,61.74
2017-11-28T03:01:12.001Z,61.65
2017-11-28T03:01:12.601Z,61.83
2017-11-28T03:02:07.106Z,61.55
2017-11-28T03:02:07.678Z,61.65
2017-11-28T03:02:08.279Z,61.65
2017-11-28T03:02:08.881Z,61.65
2017-11-28T03:02:09.477Z,61.55
2017-11-28T03:02:10.077Z,61.65
2017-11-28T03:02:10.677Z,61.55
2017-11-28T03:02:11.278Z,61.65
2017-11-28T03:03:04.758Z,62.40
2017-11-28T03:03:05.344Z,62.40
2017-11-28T03:03:05.934Z,62.40
2017-11-28T03:03:06.536Z,62.31
2017-11-28T03:03:07.132Z,62.40
2017-11-28T03:03:07.748Z,62.40
2017-11-28T03:03:08.330Z,62.40
2017-11-28T03:03:08.932Z,62.31
2017-11-28T03:04:03.433Z,61.74
2017-11-28T03:04:04.011Z,61.65
2017-11-28T03:04:04.606Z,61.74
2017-11-28T03:04:05.206Z,61.65
2017-11-28T03:04:05.808Z,61.65
2017-11-28T03:04:06.405Z,61.65
2017-11-28T03:04:07.007Z,61.74
2017-11-28T03:04:07.610Z,61.65
2017-11-28T03:05:01.085Z,61.74
2017-11-28T03:05:01.658Z,61.83
2017-11-28T03:05:02.258Z,61.83
2017-11-28T03:05:02.864Z,61.83
2017-11-28T03:05:03.460Z,61.93
2017-11-28T03:05:04.059Z,61.93
2017-11-28T03:05:04.659Z,61.74
2017-11-28T03:05:05.258Z,61.93
2017-11-28T03:05:58.736Z,61.74
2017-11-28T03:05:59.316Z,61.83
2017-11-28T03:05:59.910Z,61.74
2017-11-28T03:06:00.510Z,62.02
2017-11-28T03:06:01.110Z,61.93
2017-11-28T03:06:01.710Z,61.83
2017-11-28T03:06:02.321Z,61.93
2017-11-28T03:06:02.909Z,61.83
2017-11-28T03:06:57.412Z,62.12
2017-11-28T03:06:57.984Z,61.83
2017-11-28T03:06:58.584Z,61.74
2017-11-28T03:06:59.184Z,61.93
2017-11-28T03:06:59.788Z,61.74
2017-11-28T03:07:00.382Z,61.74
2017-11-28T03:07:00.984Z,61.55
2017-11-28T03:07:01.585Z,61.46
2017-11-28T03:07:55.164Z,61.65
2017-11-28T03:07:55.739Z,61.93
2017-11-28T03:07:56.339Z,61.65
2017-11-28T03:07:56.941Z,61.93
2017-11-28T03:07:57.542Z,61.93
2017-11-28T03:07:58.140Z,61.93
2017-11-28T03:07:58.738Z,61.93
2017-11-28T03:07:59.337Z,61.83
2017-11-28T03:08:52.826Z,61.83
2017-11-28T03:08:53.393Z,61.74
2017-11-28T03:08:53.992Z,62.02
2017-11-28T03:08:54.622Z,61.93
2017-11-28T03:08:55.192Z,61.74
2017-11-28T03:08:55.791Z,61.83
2017-11-28T03:08:56.393Z,62.12
2017-11-28T03:08:56.989Z,61.93
2017-11-28T03:09:50.473Z,62.88
2017-11-28T03:09:51.067Z,62.59
2017-11-28T03:09:51.654Z,62.88
2017-11-28T03:09:52.243Z,62.97
2017-11-28T03:09:52.842Z,62.31
2017-11-28T03:09:53.443Z,62.21
2017-11-28T03:09:54.042Z,62.12
2017-11-28T03:09:54.641Z,62.40
2017-11-28T03:10:48.127Z,62.40
2017-11-28T03:10:48.695Z,62.59
2017-11-28T03:10:49.294Z,62.50
2017-11-28T03:10:49.900Z,62.59
2017-11-28T03:10:50.496Z,63.07
2017-11-28T03:10:51.105Z,63.26
2017-11-28T03:10:51.695Z,62.31
2017-11-28T03:10:52.295Z,62.40
2017-11-28T03:11:46.794Z,63.07
2017-11-28T03:11:47.370Z,62.97
2017-11-28T03:11:47.976Z,63.07
2017-11-28T03:11:48.570Z,63.07
2017-11-28T03:11:49.173Z,63.17
2017-11-28T03:11:49.770Z,63.07
2017-11-28T03:11:50.369Z,63.07
2017-11-28T03:11:50.970Z,63.26
2017-11-28T03:12:44.451Z,63.54
2017-11-28T03:12:45.024Z,63.45
2017-11-28T03:12:45.621Z,63.35
2017-11-28T03:12:46.222Z,63.64
2017-11-28T03:12:46.824Z,63.45
2017-11-28T03:12:47.427Z,63.35
2017-11-28T03:12:48.021Z,63.35
2017-11-28T03:12:48.622Z,63.45
2017-11-28T03:13:42.100Z,63.64
2017-11-28T03:13:42.677Z,63.26
2017-11-28T03:13:43.274Z,63.45
2017-11-28T03:13:43.874Z,63.26
2017-11-28T03:13:44.473Z,63.45
2017-11-28T03:13:45.073Z,63.17
2017-11-28T03:13:45.674Z,63.26
2017-11-28T03:13:46.274Z,63.64
2017-11-28T03:14:39.751Z,63.64
2017-11-28T03:14:40.327Z,63.64
2017-11-28T03:14:40.925Z,63.73
2017-11-28T03:14:41.525Z,63.73
2017-11-28T03:14:42.126Z,63.82
2017-11-28T03:14:42.725Z,63.92
2017-11-28T03:14:43.325Z,63.82
2017-11-28T03:14:43.925Z,63.73
2017-11-28T03:15:37.410Z,63.54
2017-11-28T03:15:37.977Z,63.64
2017-11-28T03:15:38.577Z,63.73
2017-11-28T03:15:39.176Z,63.64
2017-11-28T03:15:39.779Z,63.45
2017-11-28T03:15:40.378Z,63.35
2017-11-28T03:15:40.975Z,63.54
2017-11-28T03:15:41.576Z,63.45
2017-11-28T03:16:36.078Z,64.01
2017-11-28T03:16:36.654Z,63.92
2017-11-28T03:16:37.260Z,63.82
2017-11-28T03:16:37.854Z,64.01
2017-11-28T03:16:38.453Z,63.82
2017-11-28T03:16:39.053Z,63.82
2017-11-28T03:16:39.652Z,64.01
2017-11-28T03:16:40.252Z,64.01
2017-11-28T03:17:33.730Z,64.01
2017-11-28T03:17:34.307Z,64.01
2017-11-28T03:17:34.908Z,64.49
2017-11-28T03:17:35.505Z,64.40
2017-11-28T03:17:36.105Z,64.59
2017-11-28T03:17:36.713Z,64.59
2017-11-28T03:17:37.304Z,64.40
2017-11-28T03:17:37.904Z,64.40
2017-11-28T03:18:31.381Z,64.49
2017-11-28T03:18:31.957Z,64.49
2017-11-28T03:18:32.556Z,64.68
2017-11-28T03:18:33.155Z,64.59
2017-11-28T03:18:33.757Z,64.49
2017-11-28T03:18:34.356Z,64.59
2017-11-28T03:18:34.956Z,64.40
2017-11-28T03:18:35.556Z,64.30
2017-11-28T03:19:30.057Z,64.59
2017-11-28T03:19:30.630Z,64.59
2017-11-28T03:19:31.230Z,64.59
2017-11-28T03:19:31.833Z,64.59
2017-11-28T03:19:32.432Z,64.20
2017-11-28T03:19:33.030Z,64.20
2017-11-28T03:19:33.634Z,64.49
2017-11-28T03:19:34.232Z,64.20
2017-11-28T03:20:30.781Z,65.16
2017-11-28T03:20:31.355Z,65.06
2017-11-28T03:20:31.957Z,64.97
2017-11-28T03:21:46.968Z,65.91
2017-11-28T03:21:47.547Z,65.72
2017-11-28T03:21:48.149Z,65.72
2017-11-28T03:21:48.740Z,65.72
2017-11-28T03:21:49.342Z,65.72
2017-11-28T03:21:49.944Z,65.91
2017-11-28T03:22:44.413Z,65.91
2017-11-28T03:22:44.988Z,65.91
2017-11-28T03:22:45.588Z,65.53
2017-11-28T03:22:46.189Z,65.72
2017-11-28T03:22:46.790Z,65.82
2017-11-28T03:22:47.385Z,65.82
2017-11-28T03:22:47.994Z,65.82
2017-11-28T03:23:47.500Z,66.20
2017-11-28T03:23:48.067Z,66.01
2017-11-28T03:23:48.666Z,66.10
2017-11-28T03:23:49.267Z,65.91
2017-11-28T03:23:49.868Z,66.01
2017-11-28T03:23:50.466Z,65.91
2017-11-28T03:23:51.066Z,66.20
2017-11-28T03:23:51.667Z,66.20
2017-11-28T03:23:52.265Z,66.20
2017-11-28T03:23:52.865Z,66.29
2017-11-28T03:23:53.467Z,66.01
2017-11-28T03:23:54.067Z,65.72
2017-11-28T03:23:54.666Z,65.72
2017-11-28T03:23:55.266Z,65.82
2017-11-28T03:23:55.865Z,65.72
2017-11-28T03:23:56.464Z,65.63
2017-11-28T04:06:37.963Z,63.92
2017-11-28T04:06:38.529Z,63.92
2017-11-28T04:06:39.127Z,63.64
2017-11-28T04:06:39.726Z,63.73
2017-11-28T04:06:40.327Z,63.92
2017-11-28T04:06:40.925Z,63.92
2017-11-28T04:06:41.525Z,63.92
2017-11-28T04:06:42.127Z,63.92
2017-11-28T04:07:35.605Z,63.82
2017-11-28T04:07:36.179Z,63.92
2017-11-28T04:07:36.779Z,63.82
2017-11-28T04:07:37.379Z,64.01
2017-11-28T04:07:37.978Z,64.01
2017-11-28T04:07:38.580Z,63.92
2017-11-28T04:07:39.182Z,63.92
2017-11-28T04:07:39.779Z,63.82
2017-11-28T04:08:34.793Z,64.68
2017-11-28T04:08:35.366Z,64.87
2017-11-28T04:08:35.966Z,64.78
2017-11-28T04:08:36.565Z,64.40
2017-11-28T04:08:37.170Z,64.68
2017-11-28T04:08:37.769Z,64.68
2017-11-28T04:08:38.372Z,64.59
2017-11-28T04:09:32.343Z,63.92
2017-11-28T04:09:32.916Z,64.20
2017-11-28T04:09:33.514Z,64.30
2017-11-28T04:09:34.116Z,64.30
2017-11-28T04:09:34.715Z,64.49
2017-11-28T04:09:35.319Z,64.40
2017-11-28T04:09:35.917Z,64.30
2017-11-28T04:10:48.840Z,64.01
2017-11-28T04:10:49.411Z,64.11
2017-11-28T04:10:50.011Z,64.01
2017-11-28T04:10:50.615Z,63.92
2017-11-28T04:10:51.210Z,64.49
2017-11-28T04:10:51.813Z,64.40
2017-11-28T04:10:52.407Z,64.49
2017-11-28T04:10:53.008Z,64.49
2017-11-28T04:11:46.491Z,64.30
2017-11-28T04:11:47.064Z,64.59
2017-11-28T04:11:47.663Z,64.40
2017-11-28T04:11:48.263Z,64.49
2017-11-28T04:11:48.865Z,64.59
2017-11-28T04:11:49.462Z,64.68
2017-11-28T04:11:50.062Z,64.68
2017-11-28T04:11:50.663Z,64.87
2017-11-28T04:12:44.143Z,64.40
2017-11-28T04:12:44.717Z,64.68
2017-11-28T04:12:45.315Z,64.40
2017-11-28T04:12:45.916Z,64.59
2017-11-28T04:12:46.519Z,64.68
2017-11-28T04:12:47.113Z,64.68
2017-11-28T04:12:47.713Z,64.78
2017-11-28T04:12:48.313Z,64.68
2017-11-28T04:13:41.793Z,63.82
2017-11-28T04:13:42.365Z,63.54
2017-11-28T04:13:42.967Z,63.54
2017-11-28T04:13:43.566Z,64.01
2017-11-28T04:13:44.167Z,63.82
2017-11-28T04:13:44.765Z,63.82